sensor_id;sensor_type;location;lat;lon;timestamp;pressure;altitude;pressure_sealevel;temperature;humidity
62418;BME280;48456;54.242;10.280;2022-10-16T00:02:07;100664.81;;;11.41;100.00
62418;BME280;48456;54.242;10.280;2022-10-16T00:04:33;100664.84;;;11.40;100.00
62418;BME280;48456;54.242;10.280;2022-10-16T00:07:00;100664.84;;;11.40;100.00
62418;BME280;48456;54.242;10.280;2022-10-16T00:09:26;100663.94;;;11.39;100.00
62418;BME280;48456;54.242;10.280;2022-10-16T00:11:52;100662.19;;;11.38;100.00
62418;BME280;48456;54.242;10.280;2022-10-16T00:14:23;100668.41;;;11.36;100.00
62418;BME280;48456;54.242;10.280;2022-10-16T00:16:49;100666.66;;;11.33;100.00
62418;BME280;48456;54.242;10.280;2022-10-16T00:19:16;100663.13;;;11.33;100.00
62418;BME280;48456;54.242;10.280;2022-10-16T00:21:42;100666.69;;;11.31;100.00
62418;BME280;48456;54.242;10.280;2022-10-16T00:24:09;100676.38;;;11.33;100.00
62418;BME280;48456;54.242;10.280;2022-10-16T00:26:36;100672.88;;;11.30;100.00
62418;BME280;48456;54.242;10.280;2022-10-16T00:29:02;100672.88;;;11.29;100.00
62418;BME280;48456;54.242;10.280;2022-10-16T00:31:29;100672.00;;;11.28;100.00
62418;BME280;48456;54.242;10.280;2022-10-16T00:33:56;100673.78;;;11.26;100.00
62418;BME280;48456;54.242;10.280;2022-10-16T00:36:23;100677.28;;;11.31;100.00
62418;BME280;48456;54.242;10.280;2022-10-16T00:38:51;100679.06;;;11.31;100.00
62418;BME280;48456;54.242;10.280;2022-10-16T00:41:19;100678.19;;;11.29;100.00
62418;BME280;48456;54.242;10.280;2022-10-16T00:43:47;100675.56;;;11.26;100.00
62418;BME280;48456;54.242;10.280;2022-10-16T00:46:21;100677.34;;;11.27;100.00
62418;BME280;48456;54.242;10.280;2022-10-16T00:48:52;100672.03;;;11.25;100.00
62418;BME280;48456;54.242;10.280;2022-10-16T00:51:21;100682.63;;;11.25;100.00
62418;BME280;48456;54.242;10.280;2022-10-16T00:53:49;100677.34;;;11.24;100.00
62418;BME280;48456;54.242;10.280;2022-10-16T00:56:15;100682.63;;;11.25;100.00
62418;BME280;48456;54.242;10.280;2022-10-16T00:58:42;100685.28;;;11.25;100.00
62418;BME280;48456;54.242;10.280;2022-10-16T01:01:08;100690.59;;;11.24;100.00
62418;BME280;48456;54.242;10.280;2022-10-16T01:03:36;100688.84;;;11.23;100.00
62418;BME280;48456;54.242;10.280;2022-10-16T01:06:19;100685.28;;;11.24;100.00
62418;BME280;48456;54.242;10.280;2022-10-16T01:11:22;100700.28;;;11.25;100.00
62418;BME280;48456;54.242;10.280;2022-10-16T01:13:51;100697.63;;;11.25;100.00
62418;BME280;48456;54.242;10.280;2022-10-16T01:16:42;100694.09;;;11.26;100.00
62418;BME280;48456;54.242;10.280;2022-10-16T01:21:36;100696.75;;;11.24;100.00
62418;BME280;48456;54.242;10.280;2022-10-16T01:27:19;100702.94;;;11.23;100.00
62418;BME280;48456;54.242;10.280;2022-10-16T01:29:50;100709.97;;;11.27;100.00
62418;BME280;48456;54.242;10.280;2022-10-16T01:32:20;100709.09;;;11.27;100.00
62418;BME280;48456;54.242;10.280;2022-10-16T01:34:51;100702.03;;;11.27;100.00
62418;BME280;48456;54.242;10.280;2022-10-16T01:37:21;100704.66;;;11.27;100.00
62418;BME280;48456;54.242;10.280;2022-10-16T01:39:49;100713.50;;;11.29;100.00
62418;BME280;48456;54.242;10.280;2022-10-16T01:42:19;100717.00;;;11.30;100.00
62418;BME280;48456;54.242;10.280;2022-10-16T01:44:47;100712.59;;;11.30;100.00
62418;BME280;48456;54.242;10.280;2022-10-16T01:47:14;100714.34;;;11.33;100.00
62418;BME280;48456;54.242;10.280;2022-10-16T01:49:41;100708.13;;;11.34;100.00
62418;BME280;48456;54.242;10.280;2022-10-16T01:52:10;100704.63;;;11.32;100.00
62418;BME280;48456;54.242;10.280;2022-10-16T01:54:37;100700.25;;;11.31;100.00
62418;BME280;48456;54.242;10.280;2022-10-16T01:57:04;100702.91;;;11.29;100.00
62418;BME280;48456;54.242;10.280;2022-10-16T01:59:32;100703.78;;;11.28;100.00
62418;BME280;48456;54.242;10.280;2022-10-16T02:02:01;100695.81;;;11.30;100.00
62418;BME280;48456;54.242;10.280;2022-10-16T02:04:31;100692.31;;;11.29;100.00
62418;BME280;48456;54.242;10.280;2022-10-16T02:06:59;100694.09;;;11.26;100.00
62418;BME280;48456;54.242;10.280;2022-10-16T02:09:25;100696.75;;;11.24;100.00
62418;BME280;48456;54.242;10.280;2022-10-16T02:11:52;100693.25;;;11.22;100.00
62418;BME280;48456;54.242;10.280;2022-10-16T02:14:20;100688.84;;;11.20;100.00
62418;BME280;48456;54.242;10.280;2022-10-16T02:16:48;100697.72;;;11.15;100.00
62418;BME280;48456;54.242;10.280;2022-10-16T02:19:14;100703.88;;;11.16;100.00
62418;BME280;48456;54.242;10.280;2022-10-16T02:24:09;100703.88;;;11.17;100.00
62418;BME280;48456;54.242;10.280;2022-10-16T02:29:25;100703.03;;;11.11;100.00
62418;BME280;48456;54.242;10.280;2022-10-16T02:31:54;100700.38;;;11.11;100.00
62418;BME280;48456;54.242;10.280;2022-10-16T02:34:22;100701.28;;;11.08;100.00
62418;BME280;48456;54.242;10.280;2022-10-16T02:36:50;100703.94;;;11.08;100.00
62418;BME280;48456;54.242;10.280;2022-10-16T02:39:18;100704.84;;;11.07;100.00
62418;BME280;48456;54.242;10.280;2022-10-16T02:41:45;100701.28;;;11.08;100.00
62418;BME280;48456;54.242;10.280;2022-10-16T02:44:12;100701.31;;;11.07;100.00
62418;BME280;48456;54.242;10.280;2022-10-16T02:46:38;100700.44;;;11.08;100.00
62418;BME280;48456;54.242;10.280;2022-10-16T02:49:04;100696.00;;;11.08;100.00
62418;BME280;48456;54.242;10.280;2022-10-16T02:51:31;100709.22;;;11.11;100.00
62418;BME280;48456;54.242;10.280;2022-10-16T02:53:57;100703.03;;;11.14;100.00
62418;BME280;48456;54.242;10.280;2022-10-16T02:56:23;100695.09;;;11.14;100.00
62418;BME280;48456;54.242;10.280;2022-10-16T02:58:50;100698.63;;;11.10;100.00
62418;BME280;48456;54.242;10.280;2022-10-16T03:01:16;100703.94;;;11.10;100.00
62418;BME280;48456;54.242;10.280;2022-10-16T03:03:43;100706.59;;;11.05;100.00
62418;BME280;48456;54.242;10.280;2022-10-16T03:06:09;100711.06;;;10.98;100.00
62418;BME280;48456;54.242;10.280;2022-10-16T03:08:35;100704.09;;;10.89;100.00
62418;BME280;48456;54.242;10.280;2022-10-16T03:11:02;100704.13;;;10.86;100.00
62418;BME280;48456;54.242;10.280;2022-10-16T03:13:28;100698.81;;;10.85;100.00
62418;BME280;48456;54.242;10.280;2022-10-16T03:15:54;100703.25;;;10.84;100.00
62418;BME280;48456;54.242;10.280;2022-10-16T03:18:21;100695.34;;;10.79;100.00
62418;BME280;48456;54.242;10.280;2022-10-16T03:20:47;100696.25;;;10.75;100.00
62418;BME280;48456;54.242;10.280;2022-10-16T03:23:13;100691.88;;;10.71;100.00
62418;BME280;48456;54.242;10.280;2022-10-16T03:25:39;100699.81;;;10.66;100.00
62418;BME280;48456;54.242;10.280;2022-10-16T03:28:06;100680.47;;;10.63;100.00
62418;BME280;48456;54.242;10.280;2022-10-16T03:30:32;100694.56;;;10.62;100.00
62418;BME280;48456;54.242;10.280;2022-10-16T03:32:58;100699.88;;;10.60;100.00
62418;BME280;48456;54.242;10.280;2022-10-16T03:35:25;100697.22;;;10.59;100.00
62418;BME280;48456;54.242;10.280;2022-10-16T03:37:51;100699.88;;;10.57;100.00
62418;BME280;48456;54.242;10.280;2022-10-16T03:40:17;100701.69;;;10.55;100.00
62418;BME280;48456;54.242;10.280;2022-10-16T03:42:44;100703.44;;;10.51;100.00
62418;BME280;48456;54.242;10.280;2022-10-16T03:45:10;100703.50;;;10.45;100.00
62418;BME280;48456;54.242;10.280;2022-10-16T03:47:37;100704.34;;;10.43;100.00
62418;BME280;48456;54.242;10.280;2022-10-16T03:50:03;100712.28;;;10.41;100.00
62418;BME280;48456;54.242;10.280;2022-10-16T03:52:30;100715.78;;;10.43;100.00
62418;BME280;48456;54.242;10.280;2022-10-16T03:54:56;100715.78;;;10.43;100.00
62418;BME280;48456;54.242;10.280;2022-10-16T03:57:23;100721.09;;;10.45;100.00
62418;BME280;48456;54.242;10.280;2022-10-16T03:59:50;100722.00;;;10.45;100.00
62418;BME280;48456;54.242;10.280;2022-10-16T04:02:16;100721.09;;;10.49;100.00
62418;BME280;48456;54.242;10.280;2022-10-16T04:04:43;100728.13;;;10.50;100.00
62418;BME280;48456;54.242;10.280;2022-10-16T04:07:09;100724.59;;;10.50;100.00
62418;BME280;48456;54.242;10.280;2022-10-16T04:09:35;100728.13;;;10.49;100.00
62418;BME280;48456;54.242;10.280;2022-10-16T04:12:02;100731.69;;;10.45;100.00
62418;BME280;48456;54.242;10.280;2022-10-16T04:14:28;100738.72;;;10.46;100.00
62418;BME280;48456;54.242;10.280;2022-10-16T04:16:54;100740.50;;;10.47;100.00
62418;BME280;48456;54.242;10.280;2022-10-16T04:19:21;100742.25;;;10.45;100.00
62418;BME280;48456;54.242;10.280;2022-10-16T04:21:47;100738.72;;;10.39;100.00
62418;BME280;48456;54.242;10.280;2022-10-16T04:24:13;100736.09;;;10.38;100.00
62418;BME280;48456;54.242;10.280;2022-10-16T04:26:40;100741.38;;;10.36;100.00
62418;BME280;48456;54.242;10.280;2022-10-16T04:29:06;100739.63;;;10.34;100.00
62418;BME280;48456;54.242;10.280;2022-10-16T04:31:33;100752.84;;;10.32;100.00
62418;BME280;48456;54.242;10.280;2022-10-16T04:33:59;100759.94;;;10.30;100.00
62418;BME280;48456;54.242;10.280;2022-10-16T04:36:26;100764.34;;;10.26;100.00
62418;BME280;48456;54.242;10.280;2022-10-16T04:38:54;100766.13;;;10.27;100.00
62418;BME280;48456;54.242;10.280;2022-10-16T04:41:20;100757.28;;;10.27;100.00
62418;BME280;48456;54.242;10.280;2022-10-16T04:43:47;100760.81;;;10.27;100.00
62418;BME280;48456;54.242;10.280;2022-10-16T04:46:13;100760.78;;;10.31;100.00
62418;BME280;48456;54.242;10.280;2022-10-16T04:48:39;100768.72;;;10.38;100.00
62418;BME280;48456;54.242;10.280;2022-10-16T04:51:06;100770.50;;;10.44;100.00
62418;BME280;48456;54.242;10.280;2022-10-16T04:53:32;100766.06;;;10.48;100.00
62418;BME280;48456;54.242;10.280;2022-10-16T04:55:59;100767.81;;;10.52;100.00
62418;BME280;48456;54.242;10.280;2022-10-16T04:58:25;100766.00;;;10.60;100.00
62418;BME280;48456;54.242;10.280;2022-10-16T05:00:51;100765.09;;;10.63;100.00
62418;BME280;48456;54.242;10.280;2022-10-16T05:03:18;100769.50;;;10.65;100.00
62418;BME280;48456;54.242;10.280;2022-10-16T05:05:45;100760.66;;;10.70;100.00
62418;BME280;48456;54.242;10.280;2022-10-16T05:08:15;100763.31;;;10.71;100.00
62418;BME280;48456;54.242;10.280;2022-10-16T05:10:42;100768.59;;;10.70;100.00
62418;BME280;48456;54.242;10.280;2022-10-16T05:13:08;100765.94;;;10.68;100.00
62418;BME280;48456;54.242;10.280;2022-10-16T05:15:35;100769.50;;;10.65;100.00
62418;BME280;48456;54.242;10.280;2022-10-16T05:18:01;100773.03;;;10.63;100.00
62418;BME280;48456;54.242;10.280;2022-10-16T05:20:27;100760.72;;;10.60;100.00
62418;BME280;48456;54.242;10.280;2022-10-16T05:22:54;100766.00;;;10.59;100.00
62418;BME280;48456;54.242;10.280;2022-10-16T05:25:20;100765.13;;;10.58;100.00
62418;BME280;48456;54.242;10.280;2022-10-16T05:27:47;100766.00;;;10.57;100.00
62418;BME280;48456;54.242;10.280;2022-10-16T05:30:14;100768.66;;;10.57;100.00
62418;BME280;48456;54.242;10.280;2022-10-16T05:32:41;100771.28;;;10.59;100.00
62418;BME280;48456;54.242;10.280;2022-10-16T05:35:07;100767.75;;;10.58;100.00
62418;BME280;48456;54.242;10.280;2022-10-16T05:37:37;100772.19;;;10.55;100.00
62418;BME280;48456;54.242;10.280;2022-10-16T05:40:04;100784.56;;;10.51;100.00
62418;BME280;48456;54.242;10.280;2022-10-16T05:42:30;100792.50;;;10.46;100.00
62418;BME280;48456;54.242;10.280;2022-10-16T05:44:57;100798.69;;;10.47;100.00
62418;BME280;48456;54.242;10.280;2022-10-16T05:47:23;100798.69;;;10.45;100.00
62418;BME280;48456;54.242;10.280;2022-10-16T05:49:50;100798.69;;;10.48;100.00
62418;BME280;48456;54.242;10.280;2022-10-16T05:52:16;100801.28;;;10.50;100.00
62418;BME280;48456;54.242;10.280;2022-10-16T05:54:43;100807.47;;;10.52;100.00
62418;BME280;48456;54.242;10.280;2022-10-16T05:57:09;100815.41;;;10.57;100.00
62418;BME280;48456;54.242;10.280;2022-10-16T05:59:36;100817.13;;;10.64;100.00
62418;BME280;48456;54.242;10.280;2022-10-16T06:02:02;100817.13;;;10.67;100.00
62418;BME280;48456;54.242;10.280;2022-10-16T06:04:29;100820.59;;;10.72;100.00
62418;BME280;48456;54.242;10.280;2022-10-16T06:06:57;100815.31;;;10.80;100.00
62418;BME280;48456;54.242;10.280;2022-10-16T06:09:26;100817.03;;;10.84;100.00
62418;BME280;48456;54.242;10.280;2022-10-16T06:11:52;100802.03;;;10.88;100.00
62418;BME280;48456;54.242;10.280;2022-10-16T06:14:18;100809.06;;;10.90;100.00
62418;BME280;48456;54.242;10.280;2022-10-16T06:16:45;100816.09;;;10.95;100.00
62418;BME280;48456;54.242;10.280;2022-10-16T06:19:11;100817.81;;;11.02;100.00
62418;BME280;48456;54.242;10.280;2022-10-16T06:21:37;100810.75;;;11.01;100.00
62418;BME280;48456;54.242;10.280;2022-10-16T06:24:04;100801.06;;;10.98;100.00
62418;BME280;48456;54.242;10.280;2022-10-16T06:26:30;100800.19;;;10.98;100.00
62418;BME280;48456;54.242;10.280;2022-10-16T06:28:57;100797.56;;;10.96;100.00
62418;BME280;48456;54.242;10.280;2022-10-16T06:31:25;100796.69;;;10.94;100.00
62418;BME280;48456;54.242;10.280;2022-10-16T06:33:57;100803.75;;;10.94;100.00
62418;BME280;48456;54.242;10.280;2022-10-16T06:36:23;100807.25;;;10.97;100.00
62418;BME280;48456;54.242;10.280;2022-10-16T06:38:50;100809.91;;;10.99;100.00
62418;BME280;48456;54.242;10.280;2022-10-16T06:41:18;100816.03;;;11.07;100.00
62418;BME280;48456;54.242;10.280;2022-10-16T06:43:45;100818.59;;;11.18;100.00
62418;BME280;48456;54.242;10.280;2022-10-16T06:46:12;100829.13;;;11.30;100.00
62418;BME280;48456;54.242;10.280;2022-10-16T06:48:39;100827.28;;;11.39;100.00
62418;BME280;48456;54.242;10.280;2022-10-16T06:51:09;100836.97;;;11.43;100.00
62418;BME280;48456;54.242;10.280;2022-10-16T06:53:38;100837.81;;;11.45;100.00
62418;BME280;48456;54.242;10.280;2022-10-16T06:56:26;100836.06;;;11.47;100.00
62418;BME280;48456;54.242;10.280;2022-10-16T06:58:53;100846.66;;;11.50;100.00
62418;BME280;48456;54.242;10.280;2022-10-16T07:01:20;100847.50;;;11.52;100.00
62418;BME280;48456;54.242;10.280;2022-10-16T07:03:47;100849.25;;;11.52;100.00
62418;BME280;48456;54.242;10.280;2022-10-16T07:06:18;100856.34;;;11.53;100.00
62418;BME280;48456;54.242;10.280;2022-10-16T07:08:45;100853.63;;;11.56;100.00
62418;BME280;48456;54.242;10.280;2022-10-16T07:11:13;100863.38;;;11.57;100.00
62418;BME280;48456;54.242;10.280;2022-10-16T07:13:41;100867.78;;;11.56;100.00
62418;BME280;48456;54.242;10.280;2022-10-16T07:16:08;100871.25;;;11.60;100.00
62418;BME280;48456;54.242;10.280;2022-10-16T07:18:35;100873.91;;;11.63;100.00
62418;BME280;48456;54.242;10.280;2022-10-16T07:21:13;100874.81;;;11.62;100.00
62418;BME280;48456;54.242;10.280;2022-10-16T07:23:40;100872.16;;;11.61;100.00
62418;BME280;48456;54.242;10.280;2022-10-16T07:26:07;100878.31;;;11.64;100.00
62418;BME280;48456;54.242;10.280;2022-10-16T07:28:33;100880.00;;;11.73;100.00
62418;BME280;48456;54.242;10.280;2022-10-16T07:31:00;100887.88;;;11.84;100.00
62418;BME280;48456;54.242;10.280;2022-10-16T07:33:26;100879.84;;;11.95;100.00
62418;BME280;48456;54.242;10.280;2022-10-16T07:35:53;100888.59;;;12.05;100.00
62418;BME280;48456;54.242;10.280;2022-10-16T07:38:21;100892.09;;;12.12;100.00
62418;BME280;48456;54.242;10.280;2022-10-16T07:40:47;100883.22;;;12.17;100.00
62418;BME280;48456;54.242;10.280;2022-10-16T07:43:14;100884.16;;;12.10;100.00
62418;BME280;48456;54.242;10.280;2022-10-16T07:45:47;100887.72;;;12.03;100.00
62418;BME280;48456;54.242;10.280;2022-10-16T07:48:14;100887.81;;;11.90;100.00
62418;BME280;48456;54.242;10.280;2022-10-16T07:50:40;100887.91;;;11.81;100.00
62418;BME280;48456;54.242;10.280;2022-10-16T07:53:07;100882.56;;;11.84;100.00
62418;BME280;48456;54.242;10.280;2022-10-16T07:55:34;100880.75;;;11.89;100.00
62418;BME280;48456;54.242;10.280;2022-10-16T07:58:00;100878.09;;;11.91;100.00
62418;BME280;48456;54.242;10.280;2022-10-16T08:00:26;100892.19;;;11.96;100.00
62418;BME280;48456;54.242;10.280;2022-10-16T08:02:52;100894.78;;;12.04;100.00
62418;BME280;48456;54.242;10.280;2022-10-16T08:05:19;100889.41;;;12.16;100.00
62418;BME280;48456;54.242;10.280;2022-10-16T08:07:49;100890.97;;;12.36;100.00
62418;BME280;48456;54.242;10.280;2022-10-16T08:10:16;100882.78;;;12.58;100.00
62418;BME280;48456;54.242;10.280;2022-10-16T08:12:43;100878.09;;;12.80;100.00
62418;BME280;48456;54.242;10.280;2022-10-16T08:15:09;100880.56;;;12.96;100.00
62418;BME280;48456;54.242;10.280;2022-10-16T08:17:35;100886.69;;;13.01;100.00
62418;BME280;48456;54.242;10.280;2022-10-16T08:20:02;100890.28;;;12.97;100.00
62418;BME280;48456;54.242;10.280;2022-10-16T08:22:28;100904.44;;;12.97;100.00
62418;BME280;48456;54.242;10.280;2022-10-16T08:24:54;100907.03;;;13.02;100.00
62418;BME280;48456;54.242;10.280;2022-10-16T08:27:21;100911.38;;;13.08;100.00
62418;BME280;48456;54.242;10.280;2022-10-16T08:29:48;100918.38;;;13.15;100.00
62418;BME280;48456;54.242;10.280;2022-10-16T08:32:15;100909.41;;;13.22;100.00
62418;BME280;48456;54.242;10.280;2022-10-16T08:34:41;100895.16;;;13.28;100.00
62418;BME280;48456;54.242;10.280;2022-10-16T08:37:08;100901.28;;;13.33;100.00
62418;BME280;48456;54.242;10.280;2022-10-16T08:39:37;100893.25;;;13.38;100.00
62418;BME280;48456;54.242;10.280;2022-10-16T08:44:59;100906.47;;;13.44;100.00
62418;BME280;48456;54.242;10.280;2022-10-16T08:50:14;100912.59;;;13.53;100.00
62418;BME280;48456;54.242;10.280;2022-10-16T08:52:43;100922.19;;;13.61;100.00
62418;BME280;48456;54.242;10.280;2022-10-16T08:55:16;100921.19;;;13.69;100.00
62418;BME280;48456;54.242;10.280;2022-10-16T08:57:45;100927.34;;;13.71;100.00
62418;BME280;48456;54.242;10.280;2022-10-16T09:00:12;100926.38;;;13.78;100.00
62418;BME280;48456;54.242;10.280;2022-10-16T09:02:48;100930.72;;;13.84;100.00
62418;BME280;48456;54.242;10.280;2022-10-16T09:08:06;100933.97;;;14.01;100.00
62418;BME280;48456;54.242;10.280;2022-10-16T09:10:43;100925.94;;;14.06;100.00
62418;BME280;48456;54.242;10.280;2022-10-16T09:15:39;100935.50;;;14.16;100.00
62418;BME280;48456;54.242;10.280;2022-10-16T09:18:31;100934.47;;;14.25;100.00
62418;BME280;48456;54.242;10.280;2022-10-16T09:23:34;100923.63;;;14.36;100.00
62418;BME280;48456;54.242;10.280;2022-10-16T09:26:01;100929.75;;;14.40;100.00
62418;BME280;48456;54.242;10.280;2022-10-16T09:28:28;100934.00;;;14.50;100.00
62418;BME280;48456;54.242;10.280;2022-10-16T09:30:54;100938.41;;;14.53;100.00
62418;BME280;48456;54.242;10.280;2022-10-16T09:33:22;100926.94;;;14.48;100.00
62418;BME280;48456;54.242;10.280;2022-10-16T09:35:51;100939.44;;;14.46;100.00
62418;BME280;48456;54.242;10.280;2022-10-16T09:38:36;100951.78;;;14.50;100.00
62418;BME280;48456;54.242;10.280;2022-10-16T09:41:04;100954.28;;;14.58;100.00
62418;BME280;48456;54.242;10.280;2022-10-16T09:48:53;100968.25;;;14.71;100.00
62418;BME280;48456;54.242;10.280;2022-10-16T09:53:54;100960.59;;;15.01;100.00
62418;BME280;48456;54.242;10.280;2022-10-16T09:56:22;100984.84;;;15.31;100.00
62418;BME280;48456;54.242;10.280;2022-10-16T09:58:49;100987.81;;;15.58;100.00
62418;BME280;48456;54.242;10.280;2022-10-16T10:01:17;100983.31;;;15.62;100.00
62418;BME280;48456;54.242;10.280;2022-10-16T10:03:43;100988.50;;;15.68;100.00
62418;BME280;48456;54.242;10.280;2022-10-16T10:08:59;100999.69;;;15.82;100.00
62418;BME280;48456;54.242;10.280;2022-10-16T10:14:05;101005.44;;;15.65;100.00
62418;BME280;48456;54.242;10.280;2022-10-16T10:16:32;101002.63;;;15.71;100.00
62418;BME280;48456;54.242;10.280;2022-10-16T10:18:59;101007.06;;;15.72;100.00
62418;BME280;48456;54.242;10.280;2022-10-16T10:21:25;101012.53;;;15.66;100.00
62418;BME280;48456;54.242;10.280;2022-10-16T10:23:54;101010.84;;;15.62;100.00
62418;BME280;48456;54.242;10.280;2022-10-16T10:26:24;101009.03;;;15.64;100.00
62418;BME280;48456;54.242;10.280;2022-10-16T10:38:58;101009.13;;;15.59;100.00
62418;BME280;48456;54.242;10.280;2022-10-16T10:46:32;101014.81;;;15.83;100.00
62418;BME280;48456;54.242;10.280;2022-10-16T10:51:37;101017.97;;;16.39;100.00
62418;BME280;48456;54.242;10.280;2022-10-16T10:56:41;101010.41;;;17.23;100.00
62418;BME280;48456;54.242;10.280;2022-10-16T10:59:13;101008.75;;;17.49;100.00
62418;BME280;48456;54.242;10.280;2022-10-16T11:07:41;101028.56;;;18.02;100.00
62418;BME280;48456;54.242;10.280;2022-10-16T11:09:41;101020.69;;;18.53;100.00
62418;BME280;48456;54.242;10.280;2022-10-16T11:17:11;101023.13;;;19.12;100.00
62418;BME280;48456;54.242;10.280;2022-10-16T11:19:54;101024.00;;;19.60;100.00
62418;BME280;48456;54.242;10.280;2022-10-16T11:22:25;101042.69;;;20.32;100.00
62418;BME280;48456;54.242;10.280;2022-10-16T11:25:04;101047.09;;;19.65;100.00
62418;BME280;48456;54.242;10.280;2022-10-16T11:27:55;101051.28;;;18.46;100.00
62418;BME280;48456;54.242;10.280;2022-10-16T11:30:29;101057.63;;;17.85;100.00
62418;BME280;48456;54.242;10.280;2022-10-16T11:33:04;101069.09;;;17.28;100.00
62418;BME280;48456;54.242;10.280;2022-10-16T11:35:39;101073.03;;;16.80;100.00
62418;BME280;48456;54.242;10.280;2022-10-16T11:38:11;101075.72;;;16.43;100.00
62418;BME280;48456;54.242;10.280;2022-10-16T11:40:45;101085.81;;;16.30;100.00
62418;BME280;48456;54.242;10.280;2022-10-16T11:46:18;101093.09;;;16.23;100.00
62418;BME280;48456;54.242;10.280;2022-10-16T11:48:57;101086.13;;;16.16;100.00
62418;BME280;48456;54.242;10.280;2022-10-16T11:54:02;101092.75;;;16.74;100.00
62418;BME280;48456;54.242;10.280;2022-10-16T11:56:32;101092.84;;;16.71;100.00
62418;BME280;48456;54.242;10.280;2022-10-16T11:59:00;101095.91;;;16.90;100.00
62418;BME280;48456;54.242;10.280;2022-10-16T12:04:05;101085.41;;;19.44;100.00
62418;BME280;48456;54.242;10.280;2022-10-16T12:06:43;101098.09;;;20.78;100.00
62418;BME280;48456;54.242;10.280;2022-10-16T12:09:21;101106.72;;;21.49;100.00
62418;BME280;48456;54.242;10.280;2022-10-16T12:11:48;101111.19;;;21.69;96.08
62418;BME280;48456;54.242;10.280;2022-10-16T12:17:01;101130.50;;;21.98;94.69
62418;BME280;48456;54.242;10.280;2022-10-16T12:19:28;101129.34;;;22.04;91.45
62418;BME280;48456;54.242;10.280;2022-10-16T12:21:59;101131.81;;;21.49;91.05
62418;BME280;48456;54.242;10.280;2022-10-16T12:27:02;101139.91;;;20.85;100.00
62418;BME280;48456;54.242;10.280;2022-10-16T12:29:38;101137.28;;;21.06;100.00
62418;BME280;48456;54.242;10.280;2022-10-16T12:32:06;101127.38;;;21.88;94.78
62418;BME280;48456;54.242;10.280;2022-10-16T12:35:18;101142.47;;;22.49;78.10
62418;BME280;48456;54.242;10.280;2022-10-16T12:37:46;101151.94;;;21.20;84.52
62418;BME280;48456;54.242;10.280;2022-10-16T12:40:13;101141.28;;;19.57;100.00
62418;BME280;48456;54.242;10.280;2022-10-16T12:42:40;101166.97;;;18.29;100.00
62418;BME280;48456;54.242;10.280;2022-10-16T12:47:51;101173.56;;;17.85;100.00
62418;BME280;48456;54.242;10.280;2022-10-16T12:50:38;101168.34;;;18.98;100.00
62418;BME280;48456;54.242;10.280;2022-10-16T12:53:18;101175.97;;;20.57;100.00
62418;BME280;48456;54.242;10.280;2022-10-16T12:56:32;101172.63;;;21.38;95.84
62418;BME280;48456;54.242;10.280;2022-10-16T13:01:37;101185.03;;;22.03;83.45
62418;BME280;48456;54.242;10.280;2022-10-16T13:12:19;101197.22;;;17.69;100.00
62418;BME280;48456;54.242;10.280;2022-10-16T13:20:04;101208.53;;;16.33;100.00
62418;BME280;48456;54.242;10.280;2022-10-16T13:28:22;101233.97;;;15.60;100.00
62418;BME280;48456;54.242;10.280;2022-10-16T13:30:53;101231.56;;;15.46;100.00
62418;BME280;48456;54.242;10.280;2022-10-16T13:33:24;101222.63;;;15.49;100.00
62418;BME280;48456;54.242;10.280;2022-10-16T13:35:54;101235.88;;;15.53;100.00
62418;BME280;48456;54.242;10.280;2022-10-16T13:38:22;101236.69;;;15.57;100.00
62418;BME280;48456;54.242;10.280;2022-10-16T13:40:49;101241.97;;;15.60;100.00
62418;BME280;48456;54.242;10.280;2022-10-16T13:43:17;101253.41;;;15.67;100.00
62418;BME280;48456;54.242;10.280;2022-10-16T13:45:52;101253.41;;;15.67;100.00
62418;BME280;48456;54.242;10.280;2022-10-16T13:48:18;101264.13;;;15.64;100.00
62418;BME280;48456;54.242;10.280;2022-10-16T13:50:45;101264.25;;;15.57;100.00
62418;BME280;48456;54.242;10.280;2022-10-16T13:53:14;101273.16;;;15.55;100.00
62418;BME280;48456;54.242;10.280;2022-10-16T13:55:40;101279.53;;;15.48;100.00
62418;BME280;48456;54.242;10.280;2022-10-16T13:58:07;101285.72;;;15.48;100.00
62418;BME280;48456;54.242;10.280;2022-10-16T14:00:34;101283.16;;;15.43;100.00
62418;BME280;48456;54.242;10.280;2022-10-16T14:03:02;101295.59;;;15.41;100.00
62418;BME280;48456;54.242;10.280;2022-10-16T14:05:29;101295.56;;;15.44;100.00
62418;BME280;48456;54.242;10.280;2022-10-16T14:07:55;101301.78;;;15.45;100.00
62418;BME280;48456;54.242;10.280;2022-10-16T14:10:26;101300.94;;;15.41;100.00
62418;BME280;48456;54.242;10.280;2022-10-16T14:12:54;101290.34;;;15.38;100.00
62418;BME280;48456;54.242;10.280;2022-10-16T14:15:21;101294.81;;;15.36;100.00
62418;BME280;48456;54.242;10.280;2022-10-16T14:17:48;101311.69;;;15.38;100.00
62418;BME280;48456;54.242;10.280;2022-10-16T14:20:16;101312.69;;;15.29;100.00
62418;BME280;48456;54.242;10.280;2022-10-16T14:22:42;101310.94;;;15.28;100.00
62418;BME280;48456;54.242;10.280;2022-10-16T14:27:44;101329.75;;;15.17;100.00
62418;BME280;48456;54.242;10.280;2022-10-16T14:30:18;101318.38;;;15.04;100.00